sensor_id;sensor_type;location;lat;lon;timestamp;P1;durP1;ratioP1;P2;durP2;ratioP2
31798;SDS011;18374;51.136;3.502;2024-01-30T00:00:43;6.28;;;3.25;;
31798;SDS011;18374;51.136;3.502;2024-01-30T00:03:11;5.45;;;3.47;;
31798;SDS011;18374;51.136;3.502;2024-01-30T00:05:38;6.68;;;3.90;;
31798;SDS011;18374;51.136;3.502;2024-01-30T00:08:06;11.60;;;4.40;;
31798;SDS011;18374;51.136;3.502;2024-01-30T00:10:34;6.95;;;3.53;;
31798;SDS011;18374;51.136;3.502;2024-01-30T00:13:02;6.60;;;3.35;;
31798;SDS011;18374;51.136;3.502;2024-01-30T00:15:30;4.78;;;3.33;;
31798;SDS011;18374;51.136;3.502;2024-01-30T00:17:58;5.60;;;3.20;;
31798;SDS011;18374;51.136;3.502;2024-01-30T00:20:25;5.75;;;3.75;;
31798;SDS011;18374;51.136;3.502;2024-01-30T00:22:53;7.03;;;3.40;;
31798;SDS011;18374;51.136;3.502;2024-01-30T00:25:20;7.03;;;3.42;;
31798;SDS011;18374;51.136;3.502;2024-01-30T00:27:48;6.45;;;3.58;;
31798;SDS011;18374;51.136;3.502;2024-01-30T00:30:16;7.95;;;3.72;;
31798;SDS011;18374;51.136;3.502;2024-01-30T00:32:43;8.30;;;3.45;;
31798;SDS011;18374;51.136;3.502;2024-01-30T00:35:12;9.27;;;3.60;;
31798;SDS011;18374;51.136;3.502;2024-01-30T00:37:39;7.88;;;3.83;;
31798;SDS011;18374;51.136;3.502;2024-01-30T00:40:07;7.72;;;3.65;;
31798;SDS011;18374;51.136;3.502;2024-01-30T00:42:37;7.47;;;3.33;;
31798;SDS011;18374;51.136;3.502;2024-01-30T00:45:04;6.50;;;3.30;;
31798;SDS011;18374;51.136;3.502;2024-01-30T00:47:33;5.32;;;2.97;;
31798;SDS011;18374;51.136;3.502;2024-01-30T00:50:00;8.70;;;3.45;;
31798;SDS011;18374;51.136;3.502;2024-01-30T00:52:28;5.28;;;3.00;;
31798;SDS011;18374;51.136;3.502;2024-01-30T00:54:55;7.45;;;4.30;;
31798;SDS011;18374;51.136;3.502;2024-01-30T00:57:23;4.68;;;3.00;;
31798;SDS011;18374;51.136;3.502;2024-01-30T00:59:50;7.80;;;3.60;;
31798;SDS011;18374;51.136;3.502;2024-01-30T01:02:18;5.63;;;3.15;;
31798;SDS011;18374;51.136;3.502;2024-01-30T01:04:46;4.43;;;3.45;;
31798;SDS011;18374;51.136;3.502;2024-01-30T01:07:13;11.27;;;3.67;;
31798;SDS011;18374;51.136;3.502;2024-01-30T01:09:41;9.07;;;3.72;;
31798;SDS011;18374;51.136;3.502;2024-01-30T01:12:08;11.02;;;3.55;;
31798;SDS011;18374;51.136;3.502;2024-01-30T01:14:36;4.47;;;2.92;;
31798;SDS011;18374;51.136;3.502;2024-01-30T01:17:03;5.20;;;3.30;;
31798;SDS011;18374;51.136;3.502;2024-01-30T01:19:31;5.60;;;3.10;;
31798;SDS011;18374;51.136;3.502;2024-01-30T01:21:59;8.20;;;4.22;;
31798;SDS011;18374;51.136;3.502;2024-01-30T01:24:26;5.00;;;3.20;;
31798;SDS011;18374;51.136;3.502;2024-01-30T01:26:54;9.98;;;3.97;;
31798;SDS011;18374;51.136;3.502;2024-01-30T01:29:23;6.07;;;3.45;;
31798;SDS011;18374;51.136;3.502;2024-01-30T01:31:55;10.73;;;3.55;;
31798;SDS011;18374;51.136;3.502;2024-01-30T01:34:23;5.25;;;3.40;;
31798;SDS011;18374;51.136;3.502;2024-01-30T01:36:55;6.10;;;3.10;;
31798;SDS011;18374;51.136;3.502;2024-01-30T01:39:24;11.77;;;4.80;;
31798;SDS011;18374;51.136;3.502;2024-01-30T01:41:52;5.45;;;3.60;;
31798;SDS011;18374;51.136;3.502;2024-01-30T01:44:19;9.55;;;3.97;;
31798;SDS011;18374;51.136;3.502;2024-01-30T01:46:47;5.97;;;3.58;;
31798;SDS011;18374;51.136;3.502;2024-01-30T01:49:15;6.95;;;2.97;;
31798;SDS011;18374;51.136;3.502;2024-01-30T01:51:43;8.90;;;4.18;;
31798;SDS011;18374;51.136;3.502;2024-01-30T01:54:11;6.97;;;4.00;;
31798;SDS011;18374;51.136;3.502;2024-01-30T01:56:39;7.15;;;4.45;;
31798;SDS011;18374;51.136;3.502;2024-01-30T01:59:07;8.35;;;3.90;;
31798;SDS011;18374;51.136;3.502;2024-01-30T02:01:36;7.30;;;4.18;;
31798;SDS011;18374;51.136;3.502;2024-01-30T02:04:04;6.10;;;3.17;;
31798;SDS011;18374;51.136;3.502;2024-01-30T02:06:34;4.78;;;3.65;;
31798;SDS011;18374;51.136;3.502;2024-01-30T02:09:02;7.30;;;3.50;;
31798;SDS011;18374;51.136;3.502;2024-01-30T02:11:31;8.25;;;4.07;;
31798;SDS011;18374;51.136;3.502;2024-01-30T02:14:02;6.68;;;3.28;;
31798;SDS011;18374;51.136;3.502;2024-01-30T02:16:31;10.82;;;3.80;;
31798;SDS011;18374;51.136;3.502;2024-01-30T02:18:58;6.38;;;3.17;;
31798;SDS011;18374;51.136;3.502;2024-01-30T02:21:26;7.90;;;3.42;;
31798;SDS011;18374;51.136;3.502;2024-01-30T02:23:54;6.43;;;3.80;;
31798;SDS011;18374;51.136;3.502;2024-01-30T02:26:22;9.30;;;3.45;;
31798;SDS011;18374;51.136;3.502;2024-01-30T02:28:50;8.60;;;3.72;;
31798;SDS011;18374;51.136;3.502;2024-01-30T02:31:17;4.10;;;3.13;;
31798;SDS011;18374;51.136;3.502;2024-01-30T02:33:45;5.63;;;3.33;;
31798;SDS011;18374;51.136;3.502;2024-01-30T02:36:12;6.60;;;3.58;;
31798;SDS011;18374;51.136;3.502;2024-01-30T02:38:41;7.05;;;3.20;;
31798;SDS011;18374;51.136;3.502;2024-01-30T02:41:09;13.90;;;4.15;;
31798;SDS011;18374;51.136;3.502;2024-01-30T02:43:36;6.03;;;4.07;;
31798;SDS011;18374;51.136;3.502;2024-01-30T02:46:04;8.38;;;3.63;;
31798;SDS011;18374;51.136;3.502;2024-01-30T02:48:32;8.95;;;4.18;;
31798;SDS011;18374;51.136;3.502;2024-01-30T02:50:59;5.63;;;3.45;;
31798;SDS011;18374;51.136;3.502;2024-01-30T02:53:27;7.53;;;3.92;;
31798;SDS011;18374;51.136;3.502;2024-01-30T02:55:54;5.65;;;3.40;;
31798;SDS011;18374;51.136;3.502;2024-01-30T02:58:22;5.70;;;3.45;;
31798;SDS011;18374;51.136;3.502;2024-01-30T03:00:49;8.18;;;4.05;;
31798;SDS011;18374;51.136;3.502;2024-01-30T03:03:17;7.10;;;4.20;;
31798;SDS011;18374;51.136;3.502;2024-01-30T03:05:44;6.18;;;3.60;;
31798;SDS011;18374;51.136;3.502;2024-01-30T03:08:12;6.30;;;3.53;;
31798;SDS011;18374;51.136;3.502;2024-01-30T03:10:39;10.27;;;3.28;;
31798;SDS011;18374;51.136;3.502;2024-01-30T03:13:07;8.50;;;3.42;;
31798;SDS011;18374;51.136;3.502;2024-01-30T03:15:34;9.02;;;4.50;;
31798;SDS011;18374;51.136;3.502;2024-01-30T03:18:02;7.50;;;3.95;;
31798;SDS011;18374;51.136;3.502;2024-01-30T03:20:32;8.95;;;4.30;;
31798;SDS011;18374;51.136;3.502;2024-01-30T03:23:00;9.85;;;4.80;;
31798;SDS011;18374;51.136;3.502;2024-01-30T03:25:27;9.55;;;3.20;;
31798;SDS011;18374;51.136;3.502;2024-01-30T03:27:55;6.70;;;3.78;;
31798;SDS011;18374;51.136;3.502;2024-01-30T03:30:22;8.48;;;4.32;;
31798;SDS011;18374;51.136;3.502;2024-01-30T03:32:50;7.63;;;3.72;;
31798;SDS011;18374;51.136;3.502;2024-01-30T03:35:18;6.15;;;4.05;;
31798;SDS011;18374;51.136;3.502;2024-01-30T03:37:46;8.88;;;4.13;;
31798;SDS011;18374;51.136;3.502;2024-01-30T03:40:13;6.88;;;3.47;;
31798;SDS011;18374;51.136;3.502;2024-01-30T03:42:41;8.30;;;4.05;;
31798;SDS011;18374;51.136;3.502;2024-01-30T03:45:09;8.93;;;4.90;;
31798;SDS011;18374;51.136;3.502;2024-01-30T03:47:36;10.68;;;3.58;;
31798;SDS011;18374;51.136;3.502;2024-01-30T03:50:04;6.30;;;3.45;;
31798;SDS011;18374;51.136;3.502;2024-01-30T03:52:32;6.57;;;3.55;;
31798;SDS011;18374;51.136;3.502;2024-01-30T03:54:59;7.25;;;4.40;;
31798;SDS011;18374;51.136;3.502;2024-01-30T03:57:27;15.60;;;4.55;;
31798;SDS011;18374;51.136;3.502;2024-01-30T03:59:54;5.22;;;3.03;;
31798;SDS011;18374;51.136;3.502;2024-01-30T04:02:25;7.82;;;4.38;;
31798;SDS011;18374;51.136;3.502;2024-01-30T04:04:52;7.35;;;3.95;;
31798;SDS011;18374;51.136;3.502;2024-01-30T04:07:19;6.72;;;3.65;;
31798;SDS011;18374;51.136;3.502;2024-01-30T04:09:50;5.53;;;3.50;;
31798;SDS011;18374;51.136;3.502;2024-01-30T04:12:17;5.63;;;3.55;;
31798;SDS011;18374;51.136;3.502;2024-01-30T04:14:45;9.07;;;4.03;;
31798;SDS011;18374;51.136;3.502;2024-01-30T04:17:12;7.32;;;3.75;;
31798;SDS011;18374;51.136;3.502;2024-01-30T04:19:40;6.60;;;3.63;;
31798;SDS011;18374;51.136;3.502;2024-01-30T04:22:08;8.43;;;4.00;;
31798;SDS011;18374;51.136;3.502;2024-01-30T04:24:35;11.55;;;3.95;;
31798;SDS011;18374;51.136;3.502;2024-01-30T04:27:02;8.20;;;3.78;;
31798;SDS011;18374;51.136;3.502;2024-01-30T04:29:30;6.32;;;3.88;;
31798;SDS011;18374;51.136;3.502;2024-01-30T04:31:59;6.32;;;3.67;;
31798;SDS011;18374;51.136;3.502;2024-01-30T04:34:26;5.53;;;3.90;;
31798;SDS011;18374;51.136;3.502;2024-01-30T04:36:54;13.25;;;4.47;;
31798;SDS011;18374;51.136;3.502;2024-01-30T04:39:22;7.93;;;4.15;;
31798;SDS011;18374;51.136;3.502;2024-01-30T04:41:49;9.77;;;4.68;;
31798;SDS011;18374;51.136;3.502;2024-01-30T04:44:17;7.55;;;3.80;;
31798;SDS011;18374;51.136;3.502;2024-01-30T04:46:44;7.70;;;3.80;;
31798;SDS011;18374;51.136;3.502;2024-01-30T04:49:12;8.27;;;4.03;;
31798;SDS011;18374;51.136;3.502;2024-01-30T04:51:39;8.02;;;3.80;;
31798;SDS011;18374;51.136;3.502;2024-01-30T04:54:07;8.68;;;3.97;;
31798;SDS011;18374;51.136;3.502;2024-01-30T04:56:34;8.73;;;4.13;;
31798;SDS011;18374;51.136;3.502;2024-01-30T04:59:02;4.30;;;3.15;;
31798;SDS011;18374;51.136;3.502;2024-01-30T05:01:30;8.55;;;3.95;;
31798;SDS011;18374;51.136;3.502;2024-01-30T05:03:57;14.50;;;4.43;;
31798;SDS011;18374;51.136;3.502;2024-01-30T05:06:28;9.20;;;4.30;;
31798;SDS011;18374;51.136;3.502;2024-01-30T05:08:55;11.40;;;3.78;;
31798;SDS011;18374;51.136;3.502;2024-01-30T05:11:23;8.15;;;4.40;;
31798;SDS011;18374;51.136;3.502;2024-01-30T05:13:50;11.02;;;4.20;;
31798;SDS011;18374;51.136;3.502;2024-01-30T05:16:18;4.45;;;3.70;;
31798;SDS011;18374;51.136;3.502;2024-01-30T05:18:46;6.68;;;3.40;;
31798;SDS011;18374;51.136;3.502;2024-01-30T05:21:13;9.52;;;4.28;;
31798;SDS011;18374;51.136;3.502;2024-01-30T05:23:41;8.40;;;4.70;;
31798;SDS011;18374;51.136;3.502;2024-01-30T05:26:08;6.28;;;3.60;;
31798;SDS011;18374;51.136;3.502;2024-01-30T05:28:36;5.15;;;3.63;;
31798;SDS011;18374;51.136;3.502;2024-01-30T05:31:04;5.20;;;3.38;;
31798;SDS011;18374;51.136;3.502;2024-01-30T05:33:31;5.28;;;3.33;;
31798;SDS011;18374;51.136;3.502;2024-01-30T05:35:59;6.35;;;3.97;;
31798;SDS011;18374;51.136;3.502;2024-01-30T05:38:26;8.40;;;4.15;;
31798;SDS011;18374;51.136;3.502;2024-01-30T05:40:58;9.43;;;3.60;;
31798;SDS011;18374;51.136;3.502;2024-01-30T05:43:25;9.18;;;3.40;;
31798;SDS011;18374;51.136;3.502;2024-01-30T05:45:53;11.90;;;3.90;;
31798;SDS011;18374;51.136;3.502;2024-01-30T05:48:20;6.95;;;3.67;;
31798;SDS011;18374;51.136;3.502;2024-01-30T05:50:48;13.35;;;4.13;;
31798;SDS011;18374;51.136;3.502;2024-01-30T05:53:15;7.35;;;4.05;;
31798;SDS011;18374;51.136;3.502;2024-01-30T05:55:43;6.93;;;3.97;;
31798;SDS011;18374;51.136;3.502;2024-01-30T05:58:10;11.60;;;4.30;;
31798;SDS011;18374;51.136;3.502;2024-01-30T06:00:38;9.82;;;3.80;;
31798;SDS011;18374;51.136;3.502;2024-01-30T06:03:05;7.55;;;4.13;;
31798;SDS011;18374;51.136;3.502;2024-01-30T06:05:33;8.38;;;4.60;;
31798;SDS011;18374;51.136;3.502;2024-01-30T06:08:02;6.93;;;3.38;;
31798;SDS011;18374;51.136;3.502;2024-01-30T06:10:30;13.13;;;4.30;;
31798;SDS011;18374;51.136;3.502;2024-01-30T06:12:57;8.43;;;5.00;;
31798;SDS011;18374;51.136;3.502;2024-01-30T06:15:24;5.90;;;3.88;;
31798;SDS011;18374;51.136;3.502;2024-01-30T06:17:52;11.50;;;4.18;;
31798;SDS011;18374;51.136;3.502;2024-01-30T06:20:20;11.88;;;4.07;;
31798;SDS011;18374;51.136;3.502;2024-01-30T06:22:47;7.22;;;4.05;;
31798;SDS011;18374;51.136;3.502;2024-01-30T06:25:15;6.13;;;3.35;;
31798;SDS011;18374;51.136;3.502;2024-01-30T06:27:43;9.65;;;3.58;;
31798;SDS011;18374;51.136;3.502;2024-01-30T06:30:11;9.32;;;4.20;;
31798;SDS011;18374;51.136;3.502;2024-01-30T06:32:38;5.68;;;2.92;;
31798;SDS011;18374;51.136;3.502;2024-01-30T06:35:06;7.82;;;4.20;;
31798;SDS011;18374;51.136;3.502;2024-01-30T06:37:34;8.23;;;3.55;;
31798;SDS011;18374;51.136;3.502;2024-01-30T06:40:02;7.50;;;3.33;;
31798;SDS011;18374;51.136;3.502;2024-01-30T06:42:31;7.90;;;3.40;;
31798;SDS011;18374;51.136;3.502;2024-01-30T06:44:59;6.28;;;3.65;;
31798;SDS011;18374;51.136;3.502;2024-01-30T06:47:26;6.75;;;3.42;;
31798;SDS011;18374;51.136;3.502;2024-01-30T06:49:55;6.60;;;4.20;;
31798;SDS011;18374;51.136;3.502;2024-01-30T06:52:22;9.00;;;4.03;;
31798;SDS011;18374;51.136;3.502;2024-01-30T06:54:51;10.20;;;4.18;;
31798;SDS011;18374;51.136;3.502;2024-01-30T06:57:19;6.93;;;3.75;;
31798;SDS011;18374;51.136;3.502;2024-01-30T06:59:46;9.60;;;3.35;;
31798;SDS011;18374;51.136;3.502;2024-01-30T07:02:14;8.02;;;3.65;;
31798;SDS011;18374;51.136;3.502;2024-01-30T07:04:42;8.50;;;4.80;;
31798;SDS011;18374;51.136;3.502;2024-01-30T07:07:13;15.32;;;4.28;;
31798;SDS011;18374;51.136;3.502;2024-01-30T07:09:42;7.20;;;4.07;;
31798;SDS011;18374;51.136;3.502;2024-01-30T07:12:09;7.35;;;4.75;;
31798;SDS011;18374;51.136;3.502;2024-01-30T07:14:37;7.07;;;3.65;;
31798;SDS011;18374;51.136;3.502;2024-01-30T07:17:04;5.78;;;3.78;;
31798;SDS011;18374;51.136;3.502;2024-01-30T07:19:32;7.10;;;4.20;;
31798;SDS011;18374;51.136;3.502;2024-01-30T07:22:00;6.05;;;4.20;;
31798;SDS011;18374;51.136;3.502;2024-01-30T07:24:28;7.63;;;4.22;;
31798;SDS011;18374;51.136;3.502;2024-01-30T07:26:55;9.07;;;4.05;;
31798;SDS011;18374;51.136;3.502;2024-01-30T07:29:24;7.90;;;4.43;;
31798;SDS011;18374;51.136;3.502;2024-01-30T07:31:51;7.10;;;3.78;;
31798;SDS011;18374;51.136;3.502;2024-01-30T07:34:19;6.93;;;4.35;;
31798;SDS011;18374;51.136;3.502;2024-01-30T07:36:46;8.15;;;3.85;;
31798;SDS011;18374;51.136;3.502;2024-01-30T07:39:14;9.18;;;4.63;;
31798;SDS011;18374;51.136;3.502;2024-01-30T07:41:41;9.07;;;4.38;;
31798;SDS011;18374;51.136;3.502;2024-01-30T07:44:09;14.40;;;4.22;;
31798;SDS011;18374;51.136;3.502;2024-01-30T07:46:36;5.72;;;3.70;;
31798;SDS011;18374;51.136;3.502;2024-01-30T07:49:04;7.07;;;4.20;;
31798;SDS011;18374;51.136;3.502;2024-01-30T07:51:31;13.32;;;4.47;;
31798;SDS011;18374;51.136;3.502;2024-01-30T07:53:59;7.43;;;3.97;;
31798;SDS011;18374;51.136;3.502;2024-01-30T07:56:28;7.95;;;4.32;;
31798;SDS011;18374;51.136;3.502;2024-01-30T07:58:56;7.93;;;3.90;;
31798;SDS011;18374;51.136;3.502;2024-01-30T08:01:23;6.97;;;4.20;;
31798;SDS011;18374;51.136;3.502;2024-01-30T08:03:51;7.03;;;4.05;;
31798;SDS011;18374;51.136;3.502;2024-01-30T08:06:18;9.75;;;4.20;;
31798;SDS011;18374;51.136;3.502;2024-01-30T08:08:46;6.85;;;3.72;;
31798;SDS011;18374;51.136;3.502;2024-01-30T08:11:13;9.52;;;3.67;;
31798;SDS011;18374;51.136;3.502;2024-01-30T08:13:41;8.15;;;3.80;;
31798;SDS011;18374;51.136;3.502;2024-01-30T08:16:08;13.75;;;5.03;;
31798;SDS011;18374;51.136;3.502;2024-01-30T08:18:41;6.05;;;3.90;;
31798;SDS011;18374;51.136;3.502;2024-01-30T08:21:09;6.30;;;4.00;;
31798;SDS011;18374;51.136;3.502;2024-01-30T08:23:40;10.52;;;3.70;;
31798;SDS011;18374;51.136;3.502;2024-01-30T08:26:09;6.63;;;4.22;;
31798;SDS011;18374;51.136;3.502;2024-01-30T08:28:36;7.07;;;3.90;;
31798;SDS011;18374;51.136;3.502;2024-01-30T08:31:04;6.78;;;3.90;;
31798;SDS011;18374;51.136;3.502;2024-01-30T08:33:32;7.30;;;3.63;;
31798;SDS011;18374;51.136;3.502;2024-01-30T08:35:59;11.30;;;3.60;;
31798;SDS011;18374;51.136;3.502;2024-01-30T08:38:27;8.23;;;3.20;;
31798;SDS011;18374;51.136;3.502;2024-01-30T08:40:55;7.75;;;3.03;;
31798;SDS011;18374;51.136;3.502;2024-01-30T08:43:22;10.60;;;3.78;;
31798;SDS011;18374;51.136;3.502;2024-01-30T08:45:50;6.90;;;3.33;;
31798;SDS011;18374;51.136;3.502;2024-01-30T08:48:17;18.40;;;3.65;;
31798;SDS011;18374;51.136;3.502;2024-01-30T08:50:45;9.38;;;3.33;;
31798;SDS011;18374;51.136;3.502;2024-01-30T08:53:12;5.55;;;2.58;;
31798;SDS011;18374;51.136;3.502;2024-01-30T08:55:40;4.25;;;2.13;;
31798;SDS011;18374;51.136;3.502;2024-01-30T08:58:07;10.20;;;2.50;;
31798;SDS011;18374;51.136;3.502;2024-01-30T09:00:35;1.50;;;1.38;;
31798;SDS011;18374;51.136;3.502;2024-01-30T09:03:03;6.43;;;1.90;;
31798;SDS011;18374;51.136;3.502;2024-01-30T09:05:30;7.47;;;2.53;;
31798;SDS011;18374;51.136;3.502;2024-01-30T09:07:58;7.13;;;1.90;;
31798;SDS011;18374;51.136;3.502;2024-01-30T09:10:26;7.13;;;1.73;;
31798;SDS011;18374;51.136;3.502;2024-01-30T09:12:53;3.80;;;1.17;;
31798;SDS011;18374;51.136;3.502;2024-01-30T09:15:21;7.38;;;1.58;;
31798;SDS011;18374;51.136;3.502;2024-01-30T09:17:52;1.63;;;1.30;;
31798;SDS011;18374;51.136;3.502;2024-01-30T09:20:19;2.17;;;1.42;;
31798;SDS011;18374;51.136;3.502;2024-01-30T09:22:48;1.05;;;0.82;;
31798;SDS011;18374;51.136;3.502;2024-01-30T09:25:16;2.20;;;1.08;;
31798;SDS011;18374;51.136;3.502;2024-01-30T09:27:45;2.95;;;1.38;;
31798;SDS011;18374;51.136;3.502;2024-01-30T09:30:13;2.35;;;0.82;;
31798;SDS011;18374;51.136;3.502;2024-01-30T09:32:41;9.32;;;1.27;;
31798;SDS011;18374;51.136;3.502;2024-01-30T09:35:09;10.80;;;1.48;;
31798;SDS011;18374;51.136;3.502;2024-01-30T09:37:37;5.13;;;1.38;;
31798;SDS011;18374;51.136;3.502;2024-01-30T09:40:05;6.72;;;1.48;;
31798;SDS011;18374;51.136;3.502;2024-01-30T09:42:33;1.75;;;0.68;;
31798;SDS011;18374;51.136;3.502;2024-01-30T09:45:02;4.90;;;0.50;;
31798;SDS011;18374;51.136;3.502;2024-01-30T09:47:39;0.93;;;0.40;;
31798;SDS011;18374;51.136;3.502;2024-01-30T09:50:12;3.45;;;0.90;;
31798;SDS011;18374;51.136;3.502;2024-01-30T09:52:42;2.97;;;0.40;;
31798;SDS011;18374;51.136;3.502;2024-01-30T09:55:13;1.00;;;0.50;;
31798;SDS011;18374;51.136;3.502;2024-01-30T09:57:41;1.73;;;0.50;;
31798;SDS011;18374;51.136;3.502;2024-01-30T10:00:09;0.35;;;0.35;;
31798;SDS011;18374;51.136;3.502;2024-01-30T10:02:38;3.50;;;0.32;;
31798;SDS011;18374;51.136;3.502;2024-01-30T10:05:07;1.25;;;0.35;;
31798;SDS011;18374;51.136;3.502;2024-01-30T10:07:35;1.27;;;0.28;;
31798;SDS011;18374;51.136;3.502;2024-01-30T10:10:04;0.95;;;0.15;;
31798;SDS011;18374;51.136;3.502;2024-01-30T10:12:33;0.55;;;0.10;;
31798;SDS011;18374;51.136;3.502;2024-01-30T10:15:00;2.13;;;0.35;;
31798;SDS011;18374;51.136;3.502;2024-01-30T10:17:29;6.05;;;0.60;;
31798;SDS011;18374;51.136;3.502;2024-01-30T10:19:59;1.08;;;0.43;;
31798;SDS011;18374;51.136;3.502;2024-01-30T10:22:30;0.55;;;0.50;;
31798;SDS011;18374;51.136;3.502;2024-01-30T10:24:58;1.13;;;0.57;;
31798;SDS011;18374;51.136;3.502;2024-01-30T10:27:31;0.10;;;0.10;;
31798;SDS011;18374;51.136;3.502;2024-01-30T10:29:58;5.40;;;0.55;;
31798;SDS011;18374;51.136;3.502;2024-01-30T10:32:26;2.30;;;0.45;;
31798;SDS011;18374;51.136;3.502;2024-01-30T10:34:54;1.17;;;0.65;;
31798;SDS011;18374;51.136;3.502;2024-01-30T10:37:22;0.50;;;0.50;;
31798;SDS011;18374;51.136;3.502;2024-01-30T10:39:53;4.43;;;0.32;;
31798;SDS011;18374;51.136;3.502;2024-01-30T10:42:25;0.40;;;0.20;;
31798;SDS011;18374;51.136;3.502;2024-01-30T10:47:36;3.97;;;0.60;;
31798;SDS011;18374;51.136;3.502;2024-01-30T10:50:04;0.68;;;0.30;;
31798;SDS011;18374;51.136;3.502;2024-01-30T10:52:32;0.75;;;0.32;;
31798;SDS011;18374;51.136;3.502;2024-01-30T10:55:00;0.68;;;0.40;;
31798;SDS011;18374;51.136;3.502;2024-01-30T10:57:30;0.65;;;0.50;;
31798;SDS011;18374;51.136;3.502;2024-01-30T10:59:58;0.75;;;0.20;;
31798;SDS011;18374;51.136;3.502;2024-01-30T11:02:27;0.20;;;0.20;;
31798;SDS011;18374;51.136;3.502;2024-01-30T11:04:58;3.10;;;0.30;;
31798;SDS011;18374;51.136;3.502;2024-01-30T11:07:27;0.10;;;0.10;;
31798;SDS011;18374;51.136;3.502;2024-01-30T11:12:27;2.08;;;0.20;;
31798;SDS011;18374;51.136;3.502;2024-01-30T11:15:14;0.50;;;0.30;;
31798;SDS011;18374;51.136;3.502;2024-01-30T11:20:29;3.40;;;0.82;;
31798;SDS011;18374;51.136;3.502;2024-01-30T11:23:02;1.40;;;0.57;;
31798;SDS011;18374;51.136;3.502;2024-01-30T11:25:33;0.40;;;0.30;;
31798;SDS011;18374;51.136;3.502;2024-01-30T11:28:00;2.08;;;0.47;;
31798;SDS011;18374;51.136;3.502;2024-01-30T11:30:28;5.88;;;0.60;;
31798;SDS011;18374;51.136;3.502;2024-01-30T11:33:16;1.73;;;0.45;;
31798;SDS011;18374;51.136;3.502;2024-01-30T11:36:00;1.58;;;0.45;;
31798;SDS011;18374;51.136;3.502;2024-01-30T11:38:28;0.20;;;0.20;;
31798;SDS011;18374;51.136;3.502;2024-01-30T11:40:56;1.27;;;0.25;;
31798;SDS011;18374;51.136;3.502;2024-01-30T11:43:23;0.52;;;0.22;;
31798;SDS011;18374;51.136;3.502;2024-01-30T11:45:51;7.43;;;0.82;;
31798;SDS011;18374;51.136;3.502;2024-01-30T11:48:19;0.20;;;0.20;;
31798;SDS011;18374;51.136;3.502;2024-01-30T11:50:47;8.57;;;0.55;;
31798;SDS011;18374;51.136;3.502;2024-01-30T11:53:14;2.72;;;0.50;;
31798;SDS011;18374;51.136;3.502;2024-01-30T11:55:48;2.00;;;0.57;;
31798;SDS011;18374;51.136;3.502;2024-01-30T11:58:17;1.42;;;0.50;;
31798;SDS011;18374;51.136;3.502;2024-01-30T12:00:52;5.38;;;0.55;;
31798;SDS011;18374;51.136;3.502;2024-01-30T12:03:23;1.67;;;0.28;;
31798;SDS011;18374;51.136;3.502;2024-01-30T12:05:57;3.85;;;0.55;;
31798;SDS011;18374;51.136;3.502;2024-01-30T12:08:26;1.48;;;0.52;;
31798;SDS011;18374;51.136;3.502;2024-01-30T12:10:57;3.60;;;0.60;;
31798;SDS011;18374;51.136;3.502;2024-01-30T12:13:25;0.03;;;0.03;;
31798;SDS011;18374;51.136;3.502;2024-01-30T12:15:59;4.18;;;0.57;;
31798;SDS011;18374;51.136;3.502;2024-01-30T12:18:27;4.90;;;0.68;;
31798;SDS011;18374;51.136;3.502;2024-01-30T12:20:58;2.97;;;0.45;;
31798;SDS011;18374;51.136;3.502;2024-01-30T12:23:26;1.63;;;0.52;;
31798;SDS011;18374;51.136;3.502;2024-01-30T12:25:54;3.00;;;0.70;;
31798;SDS011;18374;51.136;3.502;2024-01-30T12:28:22;0.80;;;0.47;;
31798;SDS011;18374;51.136;3.502;2024-01-30T12:30:50;1.98;;;0.50;;
31798;SDS011;18374;51.136;3.502;2024-01-30T12:33:20;1.00;;;0.45;;
31798;SDS011;18374;51.136;3.502;2024-01-30T12:35:48;2.47;;;0.75;;
31798;SDS011;18374;51.136;3.502;2024-01-30T12:38:28;0.28;;;0.28;;
31798;SDS011;18374;51.136;3.502;2024-01-30T12:40:55;1.00;;;0.55;;
31798;SDS011;18374;51.136;3.502;2024-01-30T12:43:23;4.03;;;0.57;;
31798;SDS011;18374;51.136;3.502;2024-01-30T12:46:03;1.10;;;0.60;;
31798;SDS011;18374;51.136;3.502;2024-01-30T12:48:32;7.32;;;0.88;;
31798;SDS011;18374;51.136;3.502;2024-01-30T12:51:00;0.93;;;0.30;;
31798;SDS011;18374;51.136;3.502;2024-01-30T12:53:27;1.75;;;0.38;;
31798;SDS011;18374;51.136;3.502;2024-01-30T12:55:55;1.00;;;0.70;;
31798;SDS011;18374;51.136;3.502;2024-01-30T12:58:23;0.57;;;0.40;;
31798;SDS011;18374;51.136;3.502;2024-01-30T13:00:50;0.68;;;0.40;;
31798;SDS011;18374;51.136;3.502;2024-01-30T13:03:18;1.65;;;0.50;;
31798;SDS011;18374;51.136;3.502;2024-01-30T13:05:45;2.35;;;1.17;;
31798;SDS011;18374;51.136;3.502;2024-01-30T13:08:13;2.58;;;0.60;;
31798;SDS011;18374;51.136;3.502;2024-01-30T13:10:40;0.65;;;0.45;;
31798;SDS011;18374;51.136;3.502;2024-01-30T13:13:09;2.15;;;0.90;;
31798;SDS011;18374;51.136;3.502;2024-01-30T13:15:45;0.98;;;0.45;;
31798;SDS011;18374;51.136;3.502;2024-01-30T13:18:13;1.08;;;0.60;;
31798;SDS011;18374;51.136;3.502;2024-01-30T13:20:41;2.72;;;0.60;;
31798;SDS011;18374;51.136;3.502;2024-01-30T13:23:09;0.85;;;0.60;;
31798;SDS011;18374;51.136;3.502;2024-01-30T13:25:36;4.68;;;0.85;;
31798;SDS011;18374;51.136;3.502;2024-01-30T13:28:03;2.22;;;0.98;;
31798;SDS011;18374;51.136;3.502;2024-01-30T13:30:31;0.90;;;0.80;;
31798;SDS011;18374;51.136;3.502;2024-01-30T13:32:59;3.17;;;1.00;;
31798;SDS011;18374;51.136;3.502;2024-01-30T13:35:26;1.83;;;1.17;;
31798;SDS011;18374;51.136;3.502;2024-01-30T13:37:54;1.15;;;1.05;;
31798;SDS011;18374;51.136;3.502;2024-01-30T13:40:21;3.30;;;0.98;;
31798;SDS011;18374;51.136;3.502;2024-01-30T13:42:49;6.10;;;1.17;;
31798;SDS011;18374;51.136;3.502;2024-01-30T13:45:17;8.23;;;1.48;;
31798;SDS011;18374;51.136;3.502;2024-01-30T13:47:46;2.55;;;0.88;;
31798;SDS011;18374;51.136;3.502;2024-01-30T13:50:14;3.20;;;1.00;;
31798;SDS011;18374;51.136;3.502;2024-01-30T13:52:43;2.45;;;0.88;;
31798;SDS011;18374;51.136;3.502;2024-01-30T13:55:11;1.20;;;1.02;;
31798;SDS011;18374;51.136;3.502;2024-01-30T13:57:39;2.33;;;1.08;;
31798;SDS011;18374;51.136;3.502;2024-01-30T14:00:07;1.63;;;1.30;;
31798;SDS011;18374;51.136;3.502;2024-01-30T14:02:39;8.25;;;1.73;;
31798;SDS011;18374;51.136;3.502;2024-01-30T14:05:06;2.70;;;1.15;;
31798;SDS011;18374;51.136;3.502;2024-01-30T14:07:35;8.55;;;2.60;;
31798;SDS011;18374;51.136;3.502;2024-01-30T14:10:03;1.65;;;0.93;;
31798;SDS011;18374;51.136;3.502;2024-01-30T14:12:36;1.70;;;0.93;;
31798;SDS011;18374;51.136;3.502;2024-01-30T14:15:03;3.35;;;1.33;;
31798;SDS011;18374;51.136;3.502;2024-01-30T14:17:49;1.63;;;1.07;;
31798;SDS011;18374;51.136;3.502;2024-01-30T14:20:16;1.13;;;0.93;;
31798;SDS011;18374;51.136;3.502;2024-01-30T14:22:44;4.50;;;1.80;;
31798;SDS011;18374;51.136;3.502;2024-01-30T14:25:11;3.42;;;1.40;;
31798;SDS011;18374;51.136;3.502;2024-01-30T14:27:39;11.10;;;1.92;;
31798;SDS011;18374;51.136;3.502;2024-01-30T14:30:09;3.58;;;1.20;;
31798;SDS011;18374;51.136;3.502;2024-01-30T14:32:38;8.15;;;1.83;;
31798;SDS011;18374;51.136;3.502;2024-01-30T14:35:07;4.22;;;2.05;;
31798;SDS011;18374;51.136;3.502;2024-01-30T14:37:35;3.55;;;2.00;;
31798;SDS011;18374;51.136;3.502;2024-01-30T14:40:04;3.40;;;2.17;;
31798;SDS011;18374;51.136;3.502;2024-01-30T14:42:34;3.55;;;1.50;;
31798;SDS011;18374;51.136;3.502;2024-01-30T14:45:04;9.43;;;2.08;;
31798;SDS011;18374;51.136;3.502;2024-01-30T14:47:32;5.75;;;2.10;;
31798;SDS011;18374;51.136;3.502;2024-01-30T14:50:01;3.03;;;1.58;;
31798;SDS011;18374;51.136;3.502;2024-01-30T14:52:34;2.15;;;1.50;;
31798;SDS011;18374;51.136;3.502;2024-01-30T14:55:02;2.47;;;1.30;;
31798;SDS011;18374;51.136;3.502;2024-01-30T14:57:30;3.78;;;0.88;;
31798;SDS011;18374;51.136;3.502;2024-01-30T14:59:58;1.30;;;1.20;;